METAR EVRA 161020Z 17011KT CAVOK 17/12 Q1007 R18/090095 NOSIG =

Controllers Online

PositionControllerOnline
No controllers currently online

Booked ATC Today

No ATC booked yet.
Be the first for today!
* Times are UTC

The time is now

UTC: 

Local: 

Latvia vACC on twitter